createdAt,value
2023-05-02T00:02:19.685Z,21.07
2023-05-02T00:04:47.609Z,21.53
2023-05-02T00:07:14.609Z,18.17
2023-05-02T00:09:41.598Z,19.10
2023-05-02T00:12:08.460Z,15.77
2023-05-02T00:14:35.461Z,16.27
2023-05-02T00:17:02.356Z,18.80
2023-05-02T00:19:29.344Z,19.20
2023-05-02T00:21:56.382Z,22.67
2023-05-02T00:24:23.274Z,19.00
2023-05-02T00:26:50.165Z,23.73
2023-05-02T00:29:17.181Z,18.20
2023-05-02T00:31:44.324Z,17.43
2023-05-02T00:34:11.263Z,18.93
2023-05-02T00:36:38.120Z,18.30
2023-05-02T00:39:05.298Z,13.43
2023-05-02T00:41:32.253Z,15.50
2023-05-02T00:43:59.254Z,17.63
2023-05-02T00:46:26.340Z,16.13
2023-05-02T00:48:53.561Z,18.80
2023-05-02T00:51:20.605Z,13.93
2023-05-02T00:53:48.398Z,16.70
2023-05-02T00:56:15.312Z,16.80
2023-05-02T00:58:43.873Z,15.53
2023-05-02T01:01:41.161Z,17.73
2023-05-02T01:04:43.711Z,16.80
2023-05-02T01:07:37.027Z,25.50
2023-05-02T01:10:32.475Z,17.10
2023-05-02T01:13:19.159Z,20.73
2023-05-02T01:15:51.574Z,29.43
2023-05-02T01:18:26.597Z,24.03
2023-05-02T01:21:06.704Z,27.43
2023-05-02T01:24:06.243Z,22.60
2023-05-02T01:27:07.249Z,23.77
2023-05-02T01:29:37.535Z,17.90
2023-05-02T01:32:08.972Z,17.20
2023-05-02T01:34:40.881Z,17.83
2023-05-02T01:37:13.404Z,18.03
2023-05-02T01:39:44.052Z,19.83
2023-05-02T01:42:13.830Z,19.57
2023-05-02T01:44:43.310Z,26.83
2023-05-02T01:47:11.993Z,23.13
2023-05-02T01:49:43.719Z,26.80
2023-05-02T01:52:15.429Z,20.90
2023-05-02T01:54:45.256Z,22.83
2023-05-02T01:57:16.200Z,21.27
2023-05-02T01:59:47.979Z,28.43
2023-05-02T02:02:17.569Z,21.50
2023-05-02T02:04:48.747Z,18.80
2023-05-02T02:07:15.886Z,23.23
2023-05-02T02:09:42.982Z,21.67
2023-05-02T02:12:31.132Z,18.33
2023-05-02T02:15:28.473Z,30.27
2023-05-02T02:18:18.136Z,58.77
2023-05-02T02:20:50.074Z,97.37
2023-05-02T02:23:22.611Z,50.30
2023-05-02T02:25:54.816Z,19.13
2023-05-02T02:28:21.791Z,23.57
2023-05-02T02:30:48.923Z,20.60
2023-05-02T02:33:15.799Z,24.67
2023-05-02T02:35:53.613Z,22.37
2023-05-02T02:38:44.673Z,19.10
2023-05-02T02:41:39.709Z,21.43
2023-05-02T02:44:29.245Z,19.27
2023-05-02T02:47:41.240Z,21.80
2023-05-02T02:50:46.536Z,21.57
2023-05-02T02:53:33.666Z,23.37
2023-05-02T02:56:26.532Z,24.70
2023-05-02T02:59:14.301Z,23.90
2023-05-02T03:01:51.669Z,23.03
2023-05-02T03:04:23.683Z,26.70
2023-05-02T03:06:51.159Z,23.13
2023-05-02T03:09:18.953Z,22.30
2023-05-02T03:11:46.098Z,20.70
2023-05-02T03:14:13.030Z,25.97
2023-05-02T03:16:41.438Z,22.73
2023-05-02T03:19:08.703Z,21.53
2023-05-02T03:21:36.192Z,26.97
2023-05-02T03:24:04.975Z,26.00
2023-05-02T03:26:31.949Z,28.07
2023-05-02T03:29:03.955Z,24.70
2023-05-02T03:31:30.959Z,25.60
2023-05-02T03:33:57.962Z,27.97
2023-05-02T03:36:24.913Z,23.00
2023-05-02T03:38:51.768Z,30.73
2023-05-02T03:41:20.870Z,25.97
2023-05-02T03:43:47.820Z,23.23
2023-05-02T03:46:14.755Z,25.10
2023-05-02T03:48:41.836Z,25.27
2023-05-02T03:51:09.820Z,27.60
2023-05-02T03:53:37.345Z,25.80
2023-05-02T03:56:05.032Z,29.73
2023-05-02T03:58:32.289Z,29.03
2023-05-02T04:00:59.282Z,23.20
2023-05-02T04:03:28.535Z,25.27
2023-05-02T04:05:56.630Z,25.10
2023-05-02T04:08:23.579Z,27.00
2023-05-02T04:10:52.991Z,26.00
2023-05-02T04:13:19.902Z,22.10
2023-05-02T04:15:46.775Z,20.40
2023-05-02T04:18:13.719Z,22.57
2023-05-02T04:20:45.179Z,18.50
2023-05-02T04:23:12.115Z,21.53
2023-05-02T04:25:38.988Z,21.73
2023-05-02T04:28:06.545Z,20.43
2023-05-02T04:30:33.573Z,23.13
2023-05-02T04:33:00.623Z,27.43
2023-05-02T04:35:27.617Z,28.40
2023-05-02T04:37:54.829Z,22.57
2023-05-02T04:40:21.822Z,24.37
2023-05-02T04:42:48.670Z,25.43
2023-05-02T04:45:15.578Z,24.70
2023-05-02T04:47:42.481Z,28.30
2023-05-02T04:50:10.409Z,23.50
2023-05-02T04:52:37.541Z,29.20
2023-05-02T04:55:05.425Z,29.57
2023-05-02T04:57:32.286Z,34.10
2023-05-02T04:59:59.498Z,24.60
2023-05-02T05:02:27.014Z,29.03
2023-05-02T05:04:54.069Z,25.50
2023-05-02T05:07:21.442Z,30.30
2023-05-02T05:09:48.303Z,28.80
2023-05-02T05:12:15.169Z,30.00
2023-05-02T05:14:42.239Z,28.97
2023-05-02T05:17:09.146Z,25.57
2023-05-02T05:19:36.102Z,30.10
2023-05-02T05:22:02.936Z,28.43
2023-05-02T05:24:29.824Z,30.40
2023-05-02T05:26:56.667Z,26.87
2023-05-02T05:29:23.624Z,26.43
2023-05-02T05:31:50.624Z,23.60
2023-05-02T05:34:17.943Z,26.10
2023-05-02T05:36:44.982Z,28.83
2023-05-02T05:39:15.303Z,27.47
2023-05-02T05:41:43.110Z,25.53
2023-05-02T05:44:10.060Z,26.23
2023-05-02T05:46:37.070Z,29.30
2023-05-02T05:49:03.962Z,26.70
2023-05-02T05:51:31.506Z,27.57
2023-05-02T05:53:58.388Z,31.20
2023-05-02T05:56:25.297Z,29.40
2023-05-02T05:58:52.294Z,27.67
2023-05-02T06:01:19.130Z,31.83
2023-05-02T06:03:46.071Z,28.17
2023-05-02T06:06:13.315Z,25.33
2023-05-02T06:08:40.412Z,30.17
2023-05-02T06:11:11.573Z,27.07
2023-05-02T06:13:38.927Z,23.37
2023-05-02T06:16:06.479Z,26.10
2023-05-02T06:18:33.606Z,23.87
2023-05-02T06:21:09.330Z,28.43
2023-05-02T06:23:39.088Z,22.03
2023-05-02T06:26:06.046Z,22.80
2023-05-02T06:28:32.911Z,23.63
2023-05-02T06:31:02.313Z,21.00
2023-05-02T06:33:31.453Z,20.90
2023-05-02T06:36:01.283Z,22.27
2023-05-02T06:38:29.297Z,19.60
2023-05-02T06:40:56.326Z,18.53
2023-05-02T06:43:23.290Z,19.57
2023-05-02T06:45:56.016Z,19.07
2023-05-02T06:48:23.250Z,16.67
2023-05-02T06:50:55.746Z,17.47
2023-05-02T06:53:22.888Z,16.77
2023-05-02T06:55:50.728Z,16.10
2023-05-02T06:58:17.673Z,16.73
2023-05-02T07:00:44.768Z,17.13
2023-05-02T07:03:11.953Z,20.20
2023-05-02T07:05:38.856Z,14.33
2023-05-02T07:08:06.611Z,16.13
2023-05-02T07:10:33.655Z,14.20
2023-05-02T07:13:00.596Z,12.73
2023-05-02T07:15:27.939Z,13.20
2023-05-02T07:17:54.918Z,13.13
2023-05-02T07:20:23.029Z,14.37
2023-05-02T07:22:50.370Z,19.33
2023-05-02T07:25:17.348Z,12.37
2023-05-02T07:27:44.239Z,17.43
2023-05-02T07:30:12.151Z,12.80
2023-05-02T07:32:39.173Z,15.27
2023-05-02T07:35:06.544Z,14.83
2023-05-02T07:37:35.261Z,12.20
2023-05-02T07:40:03.194Z,13.57
2023-05-02T07:42:31.605Z,13.43
2023-05-02T07:44:59.693Z,14.27
2023-05-02T07:47:26.723Z,13.17
2023-05-02T07:49:56.760Z,12.27
2023-05-02T07:52:23.814Z,12.83
2023-05-02T07:54:51.879Z,13.53
2023-05-02T07:57:19.197Z,12.40
2023-05-02T07:59:46.328Z,14.23
2023-05-02T08:03:46.693Z,12.53
2023-05-02T08:06:13.916Z,11.27
2023-05-02T08:08:40.887Z,11.30
2023-05-02T08:11:07.782Z,14.73
2023-05-02T08:13:34.837Z,11.40
2023-05-02T08:16:02.576Z,12.23
2023-05-02T08:18:29.562Z,12.13
2023-05-02T08:20:58.552Z,16.50
2023-05-02T08:23:25.530Z,12.47
2023-05-02T08:25:52.524Z,13.50
2023-05-02T08:28:19.709Z,11.93
2023-05-02T08:30:46.660Z,12.10
2023-05-02T08:33:13.578Z,12.90
2023-05-02T08:35:41.039Z,14.60
2023-05-02T08:38:08.130Z,12.10
2023-05-02T08:40:42.679Z,11.27
2023-05-02T08:43:12.962Z,12.13
2023-05-02T08:45:44.624Z,12.53
2023-05-02T08:48:16.353Z,13.70
2023-05-02T08:50:46.539Z,11.20
2023-05-02T08:53:17.004Z,12.37
2023-05-02T08:55:44.111Z,11.30
2023-05-02T08:58:13.284Z,10.93
2023-05-02T09:00:43.150Z,13.50
2023-05-02T09:03:36.299Z,10.67
2023-05-02T09:06:16.343Z,11.33
2023-05-02T09:08:54.424Z,12.20
2023-05-02T09:11:22.146Z,10.17
2023-05-02T09:13:52.113Z,9.20
2023-05-02T09:16:26.812Z,9.23
2023-05-02T09:18:57.909Z,8.60
2023-05-02T09:21:43.204Z,9.30
2023-05-02T09:24:21.026Z,7.73
2023-05-02T09:27:04.287Z,7.40
2023-05-02T09:29:37.870Z,8.73
2023-05-02T09:32:06.734Z,8.40
2023-05-02T09:34:34.466Z,8.80
2023-05-02T09:37:02.684Z,6.70
2023-05-02T09:39:29.692Z,7.93
2023-05-02T09:41:59.114Z,6.93
2023-05-02T09:44:37.855Z,7.57
2023-05-02T09:47:06.586Z,6.53
2023-05-02T09:49:45.147Z,7.97
2023-05-02T09:52:19.679Z,6.53
2023-05-02T09:54:47.548Z,6.70
2023-05-02T09:57:14.516Z,6.20
2023-05-02T09:59:42.282Z,7.17
2023-05-02T10:02:11.288Z,6.43
2023-05-02T10:04:40.139Z,5.97
2023-05-02T10:07:10.322Z,6.53
2023-05-02T10:09:44.720Z,6.90
2023-05-02T10:12:16.565Z,6.30
2023-05-02T10:14:59.395Z,7.27
2023-05-02T10:17:42.270Z,6.40
2023-05-02T10:20:16.173Z,6.10
2023-05-02T10:22:47.115Z,6.93
2023-05-02T10:25:14.698Z,6.13
2023-05-02T10:27:42.192Z,4.80
2023-05-02T10:30:12.772Z,5.67
2023-05-02T10:32:41.615Z,6.30
2023-05-02T10:35:09.500Z,5.83
2023-05-02T10:37:40.496Z,6.10
2023-05-02T10:40:13.224Z,5.50
2023-05-02T10:42:51.103Z,5.10
2023-05-02T10:45:36.540Z,5.07
2023-05-02T10:48:25.552Z,4.93
2023-05-02T10:51:01.796Z,5.10
2023-05-02T10:53:37.183Z,5.60
2023-05-02T10:56:15.410Z,5.63
2023-05-02T10:58:46.311Z,5.20
2023-05-02T11:01:26.379Z,4.40
2023-05-02T11:04:04.056Z,5.00
2023-05-02T11:06:57.145Z,4.80
2023-05-02T11:09:23.970Z,7.90
2023-05-02T11:11:54.806Z,5.70
2023-05-02T11:14:30.906Z,5.20
2023-05-02T11:17:04.375Z,7.20
2023-05-02T11:19:56.995Z,5.70
2023-05-02T11:22:34.234Z,6.33
2023-05-02T11:25:01.804Z,5.10
2023-05-02T11:27:33.244Z,4.90
2023-05-02T11:30:43.871Z,4.70
2023-05-02T11:33:17.443Z,5.87
2023-05-02T11:35:47.655Z,5.03
2023-05-02T11:38:18.770Z,5.90
2023-05-02T11:41:05.988Z,6.60
2023-05-02T11:43:33.021Z,5.27
2023-05-02T11:46:02.460Z,5.60
2023-05-02T11:48:31.697Z,5.93
2023-05-02T11:51:05.680Z,6.27
2023-05-02T11:53:33.591Z,5.67
2023-05-02T11:56:05.303Z,5.00
2023-05-02T11:58:34.018Z,4.80
2023-05-02T12:01:17.324Z,5.37
2023-05-02T12:03:45.062Z,5.10
2023-05-02T12:06:16.042Z,4.63
2023-05-02T12:08:44.891Z,4.77
2023-05-02T12:11:16.541Z,4.50
2023-05-02T12:13:50.119Z,4.70
2023-05-02T12:16:19.152Z,4.57
2023-05-02T12:18:48.061Z,5.50
2023-05-02T12:21:15.928Z,7.33
2023-05-02T12:23:43.784Z,5.57
2023-05-02T12:26:29.210Z,4.40
2023-05-02T12:28:58.059Z,4.87
2023-05-02T12:31:27.970Z,7.30
2023-05-02T12:33:57.420Z,4.47
2023-05-02T12:36:24.885Z,4.67
2023-05-02T12:38:56.865Z,5.10
2023-05-02T12:41:33.037Z,8.13
2023-05-02T12:44:00.896Z,5.47
2023-05-02T12:46:28.355Z,4.90
2023-05-02T12:49:11.992Z,5.00
2023-05-02T12:51:40.969Z,5.37
2023-05-02T12:54:08.051Z,5.20
2023-05-02T12:56:43.340Z,5.23
2023-05-02T12:59:28.434Z,6.63
2023-05-02T13:01:55.354Z,4.97
2023-05-02T13:04:22.502Z,5.60
2023-05-02T13:06:49.617Z,7.63
2023-05-02T13:09:17.027Z,6.90
2023-05-02T13:11:43.975Z,4.97
2023-05-02T13:14:11.460Z,6.30
2023-05-02T13:16:38.562Z,8.93
2023-05-02T13:19:05.992Z,6.07
2023-05-02T13:21:33.103Z,7.83
2023-05-02T13:24:00.064Z,6.80
2023-05-02T13:26:27.050Z,5.77
2023-05-02T13:28:53.943Z,5.47
2023-05-02T13:31:20.890Z,5.10
2023-05-02T13:33:47.784Z,5.77
2023-05-02T13:36:14.768Z,4.73
2023-05-02T13:38:41.820Z,5.60
2023-05-02T13:41:08.681Z,4.97
2023-05-02T13:43:36.632Z,5.53
2023-05-02T13:46:03.855Z,6.10
2023-05-02T13:48:30.850Z,4.50
2023-05-02T13:50:57.701Z,4.80
2023-05-02T13:53:24.660Z,7.17
2023-05-02T13:55:51.559Z,7.47
2023-05-02T13:58:18.430Z,5.30
2023-05-02T14:00:45.483Z,5.63
2023-05-02T14:03:13.397Z,6.10
2023-05-02T14:05:43.496Z,6.53
2023-05-02T14:08:12.212Z,6.33
2023-05-02T14:10:39.395Z,6.07
2023-05-02T14:13:06.443Z,8.90
2023-05-02T14:15:33.596Z,6.43
2023-05-02T14:18:00.618Z,6.47
2023-05-02T14:20:27.658Z,6.63
2023-05-02T14:22:54.634Z,6.00
2023-05-02T14:25:21.522Z,5.70
2023-05-02T14:27:48.455Z,5.50
2023-05-02T14:30:15.520Z,4.27
2023-05-02T14:32:42.437Z,5.47
2023-05-02T14:35:09.938Z,4.93
2023-05-02T14:37:36.860Z,4.50
2023-05-02T14:40:04.218Z,5.37
2023-05-02T14:42:32.367Z,4.90
2023-05-02T14:45:02.098Z,5.33
2023-05-02T14:47:32.641Z,5.23
2023-05-02T14:50:00.086Z,4.33
2023-05-02T14:52:27.622Z,6.10
2023-05-02T14:54:54.592Z,5.47
2023-05-02T14:57:21.938Z,4.00
2023-05-02T14:59:48.818Z,3.70
2023-05-02T15:02:15.706Z,6.60
2023-05-02T15:04:42.646Z,4.10
2023-05-02T15:07:10.179Z,7.87
2023-05-02T15:09:37.165Z,3.67
2023-05-02T15:12:04.517Z,3.20
2023-05-02T15:14:31.369Z,3.20
2023-05-02T15:16:58.350Z,3.90
2023-05-02T15:19:25.421Z,3.70
2023-05-02T15:21:53.186Z,3.70
2023-05-02T15:24:20.448Z,3.67
2023-05-02T15:26:47.665Z,3.87
2023-05-02T15:29:15.132Z,3.30
2023-05-02T15:31:42.011Z,3.83
2023-05-02T15:34:09.638Z,2.53
2023-05-02T15:36:40.575Z,3.10
2023-05-02T15:39:07.717Z,3.03
2023-05-02T15:41:34.631Z,2.43
2023-05-02T15:44:01.750Z,2.57
2023-05-02T15:46:28.794Z,2.40
2023-05-02T15:48:56.172Z,2.40
2023-05-02T15:51:23.081Z,1.90
2023-05-02T15:53:52.274Z,1.80
2023-05-02T15:56:21.167Z,1.90
2023-05-02T15:58:48.431Z,1.93
2023-05-02T16:01:15.474Z,2.60
2023-05-02T16:03:42.540Z,2.20
2023-05-02T16:06:10.574Z,3.00
2023-05-02T16:08:37.819Z,2.03
2023-05-02T16:11:04.852Z,2.13
2023-05-02T16:13:32.040Z,2.33
2023-05-02T16:15:59.130Z,2.90
2023-05-02T16:18:28.197Z,2.50
2023-05-02T16:20:59.476Z,3.00
2023-05-02T16:23:27.111Z,2.83
2023-05-02T16:26:03.010Z,4.90
2023-05-02T16:28:30.062Z,2.27
2023-05-02T16:30:57.038Z,2.40
2023-05-02T16:33:24.061Z,2.43
2023-05-02T16:36:02.262Z,2.37
2023-05-02T16:38:29.366Z,3.00
2023-05-02T16:40:57.296Z,2.30
2023-05-02T16:43:24.966Z,2.33
2023-05-02T16:46:07.353Z,2.50
2023-05-02T16:48:35.578Z,2.23
2023-05-02T16:51:04.239Z,3.37
2023-05-02T16:53:31.892Z,2.87
2023-05-02T16:55:59.418Z,2.60
2023-05-02T16:58:29.000Z,5.30
2023-05-02T17:00:56.612Z,3.13
2023-05-02T17:03:23.644Z,2.43
2023-05-02T17:05:50.763Z,3.00
2023-05-02T17:08:17.653Z,4.13
2023-05-02T17:10:50.077Z,3.80
2023-05-02T17:13:17.183Z,2.73
2023-05-02T17:15:44.189Z,2.57
2023-05-02T17:18:11.576Z,2.40
2023-05-02T17:20:38.855Z,5.43
2023-05-02T17:23:05.903Z,6.53
2023-05-02T17:25:32.860Z,3.00
2023-05-02T17:27:59.887Z,2.50
2023-05-02T17:30:27.210Z,2.67
2023-05-02T17:32:54.249Z,3.13
2023-05-02T17:35:21.224Z,3.47
2023-05-02T17:37:48.080Z,3.70
2023-05-02T17:40:14.988Z,2.90
2023-05-02T17:42:48.123Z,3.50
2023-05-02T17:45:15.207Z,4.90
2023-05-02T17:47:42.082Z,3.67
2023-05-02T17:50:09.783Z,4.30
2023-05-02T17:52:36.684Z,2.67
2023-05-02T17:55:03.997Z,3.23
2023-05-02T17:57:31.025Z,3.77
2023-05-02T17:59:59.498Z,3.40
2023-05-02T18:02:27.516Z,3.67
2023-05-02T18:04:54.906Z,3.17
2023-05-02T18:07:25.081Z,3.30
2023-05-02T18:09:51.946Z,3.00
2023-05-02T18:12:19.573Z,2.97
2023-05-02T18:14:46.482Z,3.23
2023-05-02T18:17:13.397Z,3.63
2023-05-02T18:19:41.057Z,3.40
2023-05-02T18:22:08.432Z,3.07
2023-05-02T18:24:36.023Z,3.83
2023-05-02T18:27:03.073Z,3.13
2023-05-02T18:29:30.086Z,3.70
2023-05-02T18:31:57.128Z,3.73
2023-05-02T18:34:24.074Z,3.27
2023-05-02T18:36:51.096Z,4.97
2023-05-02T18:39:21.312Z,7.00
2023-05-02T18:41:48.186Z,8.57
2023-05-02T18:44:15.173Z,13.50
2023-05-02T18:46:42.165Z,3.83
2023-05-02T18:49:09.159Z,5.10
2023-05-02T18:51:36.369Z,3.40
2023-05-02T18:54:03.630Z,3.70
2023-05-02T18:56:30.882Z,3.40
2023-05-02T18:58:58.693Z,2.57
2023-05-02T19:01:26.005Z,4.43
2023-05-02T19:03:53.958Z,4.37
2023-05-02T19:06:21.125Z,3.47
2023-05-02T19:08:49.061Z,3.80
2023-05-02T19:11:16.036Z,3.30
2023-05-02T19:13:43.023Z,4.57
2023-05-02T19:16:12.740Z,4.03
2023-05-02T19:18:40.895Z,4.37
2023-05-02T19:21:14.411Z,4.13
2023-05-02T19:23:43.711Z,4.70
2023-05-02T19:26:13.460Z,4.27
2023-05-02T19:28:41.317Z,3.83
2023-05-02T19:31:16.648Z,4.33
2023-05-02T19:33:51.328Z,5.27
2023-05-02T19:36:24.787Z,6.00
2023-05-02T19:38:54.674Z,5.80
2023-05-02T19:41:22.219Z,4.93
2023-05-02T19:43:49.885Z,4.30
2023-05-02T19:46:18.521Z,4.80
2023-05-02T19:48:45.824Z,4.37
2023-05-02T19:51:12.838Z,5.60
2023-05-02T19:53:39.868Z,5.10
2023-05-02T19:56:07.313Z,4.20
2023-05-02T19:58:34.773Z,5.63
2023-05-02T20:01:01.847Z,4.57
2023-05-02T20:03:29.023Z,7.10
2023-05-02T20:05:57.399Z,9.50
2023-05-02T20:08:27.402Z,8.70
2023-05-02T20:10:56.823Z,6.00
2023-05-02T20:13:23.915Z,6.33
2023-05-02T20:15:52.483Z,7.20
2023-05-02T20:18:20.754Z,8.50
2023-05-02T20:20:47.646Z,6.23
2023-05-02T20:23:14.769Z,6.30
2023-05-02T20:25:42.910Z,4.67
2023-05-02T20:28:10.544Z,5.47
2023-05-02T20:30:39.640Z,6.10
2023-05-02T20:33:14.812Z,7.50
2023-05-02T20:35:44.232Z,6.43
2023-05-02T20:38:11.901Z,6.63
2023-05-02T20:40:42.519Z,7.50
2023-05-02T20:43:09.577Z,5.90
2023-05-02T20:45:36.470Z,7.40
2023-05-02T20:48:03.556Z,6.50
2023-05-02T20:50:30.987Z,7.07
2023-05-02T20:52:58.078Z,8.40
2023-05-02T20:55:25.134Z,7.30
2023-05-02T20:57:52.789Z,6.20
2023-05-02T21:00:23.397Z,8.77
2023-05-02T21:02:50.623Z,9.03
2023-05-02T21:05:17.780Z,8.20
2023-05-02T21:07:44.886Z,6.23
2023-05-02T21:10:12.066Z,6.30
2023-05-02T21:12:39.356Z,6.40
2023-05-02T21:15:08.516Z,6.63
2023-05-02T21:17:35.496Z,5.93
2023-05-02T21:20:02.737Z,6.07
2023-05-02T21:22:29.903Z,5.33
2023-05-02T21:24:56.903Z,5.87
2023-05-02T21:27:23.886Z,6.10
2023-05-02T21:29:51.036Z,5.60
2023-05-02T21:32:17.931Z,6.47
2023-05-02T21:34:44.861Z,6.90
2023-05-02T21:37:11.841Z,6.37
2023-05-02T21:39:39.036Z,5.27
2023-05-02T21:42:06.047Z,6.37
2023-05-02T21:44:32.914Z,6.10
2023-05-02T21:46:59.835Z,5.40
2023-05-02T21:49:30.247Z,5.73
2023-05-02T21:51:58.224Z,6.20
2023-05-02T21:54:25.390Z,7.53
2023-05-02T21:56:54.201Z,5.50
2023-05-02T21:59:21.114Z,7.40
2023-05-02T22:01:47.973Z,7.93
2023-05-02T22:04:14.932Z,10.47
2023-05-02T22:06:42.764Z,6.03
2023-05-02T22:09:10.237Z,5.97
2023-05-02T22:11:37.184Z,5.77
2023-05-02T22:14:04.080Z,6.67
2023-05-02T22:16:31.066Z,10.33
2023-05-02T22:18:58.137Z,5.70
2023-05-02T22:21:25.237Z,5.20
2023-05-02T22:23:52.156Z,6.30
2023-05-02T22:26:19.190Z,6.40
2023-05-02T22:28:46.051Z,6.50
2023-05-02T22:31:13.995Z,6.40
2023-05-02T22:33:42.754Z,6.00
2023-05-02T22:36:09.660Z,6.20
2023-05-02T22:38:39.559Z,5.53
2023-05-02T22:41:06.704Z,7.23
2023-05-02T22:43:33.561Z,7.13
2023-05-02T22:46:00.672Z,6.87
2023-05-02T22:48:27.890Z,5.77
2023-05-02T22:50:55.032Z,6.90
2023-05-02T22:53:22.726Z,6.30
2023-05-02T22:55:51.348Z,6.00
2023-05-02T22:58:18.254Z,7.50
2023-05-02T23:00:45.968Z,5.63
2023-05-02T23:03:12.929Z,6.77
2023-05-02T23:05:39.919Z,6.37
2023-05-02T23:08:06.821Z,5.83
2023-05-02T23:10:33.821Z,6.43
2023-05-02T23:13:00.688Z,6.43
2023-05-02T23:15:27.645Z,5.80
2023-05-02T23:17:54.516Z,6.00
2023-05-02T23:20:22.986Z,9.07
2023-05-02T23:22:49.939Z,5.70
2023-05-02T23:25:17.244Z,5.93
2023-05-02T23:27:44.228Z,6.30
2023-05-02T23:30:11.981Z,5.00
2023-05-02T23:32:39.630Z,6.87
2023-05-02T23:35:07.776Z,7.30
2023-05-02T23:37:34.800Z,5.67
2023-05-02T23:40:02.013Z,5.80
2023-05-02T23:42:30.454Z,6.27
2023-05-02T23:44:57.650Z,6.73
2023-05-02T23:47:28.687Z,6.40
2023-05-02T23:49:55.789Z,5.73
2023-05-02T23:52:22.689Z,7.87
2023-05-02T23:54:49.619Z,9.20
2023-05-02T23:57:16.518Z,6.80
2023-05-02T23:59:43.509Z,5.77
